sensor_id;sensor_type;location;lat;lon;timestamp;P1;durP1;ratioP1;P2;durP2;ratioP2
12059;SDS011;6091;51.432;6.880;2022-11-25T00:01:28;1.10;;;0.90;;
12059;SDS011;6091;51.432;6.880;2022-11-25T00:03:57;1.00;;;0.90;;
12059;SDS011;6091;51.432;6.880;2022-11-25T00:06:26;1.25;;;0.98;;
12059;SDS011;6091;51.432;6.880;2022-11-25T00:09:04;0.90;;;0.70;;
12059;SDS011;6091;51.432;6.880;2022-11-25T00:11:38;1.10;;;0.95;;
12059;SDS011;6091;51.432;6.880;2022-11-25T00:14:11;1.20;;;1.10;;
12059;SDS011;6091;51.432;6.880;2022-11-25T00:16:40;1.17;;;0.90;;
12059;SDS011;6091;51.432;6.880;2022-11-25T00:19:13;1.30;;;1.17;;
12059;SDS011;6091;51.432;6.880;2022-11-25T00:21:43;1.67;;;1.13;;
12059;SDS011;6091;51.432;6.880;2022-11-25T00:24:10;0.85;;;0.82;;
12059;SDS011;6091;51.432;6.880;2022-11-25T00:26:41;1.30;;;1.02;;
12059;SDS011;6091;51.432;6.880;2022-11-25T00:29:09;0.98;;;0.80;;
12059;SDS011;6091;51.432;6.880;2022-11-25T00:31:39;1.08;;;0.90;;
12059;SDS011;6091;51.432;6.880;2022-11-25T00:34:06;1.17;;;1.08;;
12059;SDS011;6091;51.432;6.880;2022-11-25T00:36:38;1.35;;;0.80;;
12059;SDS011;6091;51.432;6.880;2022-11-25T00:39:06;1.38;;;1.08;;
12059;SDS011;6091;51.432;6.880;2022-11-25T00:41:42;2.15;;;1.15;;
12059;SDS011;6091;51.432;6.880;2022-11-25T00:44:28;1.80;;;1.02;;
12059;SDS011;6091;51.432;6.880;2022-11-25T00:49:41;1.08;;;0.98;;
12059;SDS011;6091;51.432;6.880;2022-11-25T00:52:15;1.48;;;1.00;;
12059;SDS011;6091;51.432;6.880;2022-11-25T00:54:45;1.20;;;0.77;;
12059;SDS011;6091;51.432;6.880;2022-11-25T00:57:14;1.08;;;0.90;;
12059;SDS011;6091;51.432;6.880;2022-11-25T00:59:43;1.08;;;0.90;;
12059;SDS011;6091;51.432;6.880;2022-11-25T01:02:11;1.30;;;0.95;;
12059;SDS011;6091;51.432;6.880;2022-11-25T01:04:40;1.33;;;1.00;;
12059;SDS011;6091;51.432;6.880;2022-11-25T01:07:07;1.63;;;1.00;;
12059;SDS011;6091;51.432;6.880;2022-11-25T01:09:34;0.88;;;0.85;;
12059;SDS011;6091;51.432;6.880;2022-11-25T01:12:01;0.88;;;0.82;;
12059;SDS011;6091;51.432;6.880;2022-11-25T01:14:28;1.77;;;1.00;;
12059;SDS011;6091;51.432;6.880;2022-11-25T01:16:55;1.00;;;0.90;;
12059;SDS011;6091;51.432;6.880;2022-11-25T01:19:22;1.33;;;0.93;;
12059;SDS011;6091;51.432;6.880;2022-11-25T01:21:49;1.70;;;0.95;;
12059;SDS011;6091;51.432;6.880;2022-11-25T01:24:16;1.05;;;0.95;;
12059;SDS011;6091;51.432;6.880;2022-11-25T01:26:44;0.70;;;0.70;;
12059;SDS011;6091;51.432;6.880;2022-11-25T01:29:12;1.42;;;1.10;;
12059;SDS011;6091;51.432;6.880;2022-11-25T01:31:43;1.27;;;1.00;;
12059;SDS011;6091;51.432;6.880;2022-11-25T01:34:15;0.95;;;0.90;;
12059;SDS011;6091;51.432;6.880;2022-11-25T01:36:46;1.05;;;0.80;;
12059;SDS011;6091;51.432;6.880;2022-11-25T01:39:18;1.08;;;0.90;;
12059;SDS011;6091;51.432;6.880;2022-11-25T01:41:57;1.10;;;1.00;;
12059;SDS011;6091;51.432;6.880;2022-11-25T01:44:27;0.85;;;0.75;;
12059;SDS011;6091;51.432;6.880;2022-11-25T01:46:57;0.77;;;0.77;;
12059;SDS011;6091;51.432;6.880;2022-11-25T01:49:34;1.40;;;0.93;;
12059;SDS011;6091;51.432;6.880;2022-11-25T01:52:21;2.15;;;0.90;;
12059;SDS011;6091;51.432;6.880;2022-11-25T01:54:59;0.80;;;0.80;;
12059;SDS011;6091;51.432;6.880;2022-11-25T01:57:38;1.30;;;0.90;;
12059;SDS011;6091;51.432;6.880;2022-11-25T02:00:11;0.98;;;0.93;;
12059;SDS011;6091;51.432;6.880;2022-11-25T02:02:38;1.10;;;0.82;;
12059;SDS011;6091;51.432;6.880;2022-11-25T02:05:07;1.05;;;1.00;;
12059;SDS011;6091;51.432;6.880;2022-11-25T02:07:39;1.10;;;1.00;;
12059;SDS011;6091;51.432;6.880;2022-11-25T02:10:12;1.35;;;1.00;;
12059;SDS011;6091;51.432;6.880;2022-11-25T02:12:44;1.00;;;0.70;;
12059;SDS011;6091;51.432;6.880;2022-11-25T02:15:13;0.90;;;0.75;;
12059;SDS011;6091;51.432;6.880;2022-11-25T02:17:42;1.27;;;0.80;;
12059;SDS011;6091;51.432;6.880;2022-11-25T02:20:11;1.98;;;1.15;;
12059;SDS011;6091;51.432;6.880;2022-11-25T02:25:42;1.10;;;0.90;;
12059;SDS011;6091;51.432;6.880;2022-11-25T02:28:14;1.23;;;1.08;;
12059;SDS011;6091;51.432;6.880;2022-11-25T02:30:45;1.42;;;0.80;;
12059;SDS011;6091;51.432;6.880;2022-11-25T02:33:13;1.02;;;0.93;;
12059;SDS011;6091;51.432;6.880;2022-11-25T02:35:42;1.00;;;0.90;;
12059;SDS011;6091;51.432;6.880;2022-11-25T02:38:16;1.10;;;1.00;;
12059;SDS011;6091;51.432;6.880;2022-11-25T02:40:54;1.00;;;0.80;;
12059;SDS011;6091;51.432;6.880;2022-11-25T02:43:39;0.85;;;0.70;;
12059;SDS011;6091;51.432;6.880;2022-11-25T02:46:08;1.40;;;0.80;;
12059;SDS011;6091;51.432;6.880;2022-11-25T02:48:47;1.02;;;0.80;;
12059;SDS011;6091;51.432;6.880;2022-11-25T02:51:34;1.17;;;1.00;;
12059;SDS011;6091;51.432;6.880;2022-11-25T02:54:03;1.00;;;0.90;;
12059;SDS011;6091;51.432;6.880;2022-11-25T02:56:32;0.65;;;0.63;;
12059;SDS011;6091;51.432;6.880;2022-11-25T02:59:01;0.77;;;0.77;;
12059;SDS011;6091;51.432;6.880;2022-11-25T03:01:29;1.60;;;0.90;;
12059;SDS011;6091;51.432;6.880;2022-11-25T03:03:57;1.00;;;0.90;;
12059;SDS011;6091;51.432;6.880;2022-11-25T03:06:24;1.02;;;0.90;;
12059;SDS011;6091;51.432;6.880;2022-11-25T03:08:52;1.23;;;0.90;;
12059;SDS011;6091;51.432;6.880;2022-11-25T03:11:19;0.70;;;0.70;;
12059;SDS011;6091;51.432;6.880;2022-11-25T03:13:46;1.10;;;1.00;;
12059;SDS011;6091;51.432;6.880;2022-11-25T03:16:13;0.95;;;0.80;;
12059;SDS011;6091;51.432;6.880;2022-11-25T03:18:39;1.25;;;0.90;;
12059;SDS011;6091;51.432;6.880;2022-11-25T03:21:06;1.55;;;1.00;;
12059;SDS011;6091;51.432;6.880;2022-11-25T03:23:33;1.00;;;0.85;;
12059;SDS011;6091;51.432;6.880;2022-11-25T03:26:04;0.98;;;0.80;;
12059;SDS011;6091;51.432;6.880;2022-11-25T03:28:32;1.90;;;1.05;;
12059;SDS011;6091;51.432;6.880;2022-11-25T03:30:59;1.23;;;0.75;;
12059;SDS011;6091;51.432;6.880;2022-11-25T03:33:26;1.15;;;0.80;;
12059;SDS011;6091;51.432;6.880;2022-11-25T03:35:53;0.98;;;0.80;;
12059;SDS011;6091;51.432;6.880;2022-11-25T03:38:19;0.80;;;0.80;;
12059;SDS011;6091;51.432;6.880;2022-11-25T03:40:46;0.88;;;0.88;;
12059;SDS011;6091;51.432;6.880;2022-11-25T03:43:14;1.35;;;0.90;;
12059;SDS011;6091;51.432;6.880;2022-11-25T03:45:41;1.13;;;0.80;;
12059;SDS011;6091;51.432;6.880;2022-11-25T03:48:09;1.25;;;1.00;;
12059;SDS011;6091;51.432;6.880;2022-11-25T03:50:37;1.10;;;0.70;;
12059;SDS011;6091;51.432;6.880;2022-11-25T03:53:04;0.80;;;0.77;;
12059;SDS011;6091;51.432;6.880;2022-11-25T03:55:31;1.33;;;0.80;;
12059;SDS011;6091;51.432;6.880;2022-11-25T03:57:58;1.50;;;1.10;;
12059;SDS011;6091;51.432;6.880;2022-11-25T04:00:25;1.00;;;0.88;;
12059;SDS011;6091;51.432;6.880;2022-11-25T04:02:52;2.10;;;0.80;;
12059;SDS011;6091;51.432;6.880;2022-11-25T04:05:19;1.58;;;0.90;;
12059;SDS011;6091;51.432;6.880;2022-11-25T04:07:46;1.45;;;0.73;;
12059;SDS011;6091;51.432;6.880;2022-11-25T04:10:15;1.50;;;0.90;;
12059;SDS011;6091;51.432;6.880;2022-11-25T04:12:42;0.70;;;0.63;;
12059;SDS011;6091;51.432;6.880;2022-11-25T04:15:13;0.60;;;0.60;;
12059;SDS011;6091;51.432;6.880;2022-11-25T04:17:41;0.70;;;0.65;;
12059;SDS011;6091;51.432;6.880;2022-11-25T04:20:09;0.75;;;0.75;;
12059;SDS011;6091;51.432;6.880;2022-11-25T04:22:37;0.88;;;0.85;;
12059;SDS011;6091;51.432;6.880;2022-11-25T04:25:04;0.70;;;0.70;;
12059;SDS011;6091;51.432;6.880;2022-11-25T04:27:32;1.35;;;0.82;;
12059;SDS011;6091;51.432;6.880;2022-11-25T04:29:59;0.90;;;0.70;;
12059;SDS011;6091;51.432;6.880;2022-11-25T04:32:26;0.65;;;0.65;;
12059;SDS011;6091;51.432;6.880;2022-11-25T04:34:53;1.10;;;1.00;;
12059;SDS011;6091;51.432;6.880;2022-11-25T04:37:20;1.73;;;1.10;;
12059;SDS011;6091;51.432;6.880;2022-11-25T04:39:47;1.25;;;1.00;;
12059;SDS011;6091;51.432;6.880;2022-11-25T04:42:14;1.02;;;0.93;;
12059;SDS011;6091;51.432;6.880;2022-11-25T04:44:57;0.88;;;0.85;;
12059;SDS011;6091;51.432;6.880;2022-11-25T04:47:45;0.70;;;0.70;;
12059;SDS011;6091;51.432;6.880;2022-11-25T04:50:13;1.23;;;0.88;;
12059;SDS011;6091;51.432;6.880;2022-11-25T04:52:44;1.13;;;0.80;;
12059;SDS011;6091;51.432;6.880;2022-11-25T04:55:11;0.70;;;0.70;;
12059;SDS011;6091;51.432;6.880;2022-11-25T04:57:38;1.65;;;0.75;;
12059;SDS011;6091;51.432;6.880;2022-11-25T05:00:06;1.20;;;0.75;;
12059;SDS011;6091;51.432;6.880;2022-11-25T05:02:34;1.00;;;0.80;;
12059;SDS011;6091;51.432;6.880;2022-11-25T05:05:04;1.40;;;0.90;;
12059;SDS011;6091;51.432;6.880;2022-11-25T05:07:32;0.80;;;0.80;;
12059;SDS011;6091;51.432;6.880;2022-11-25T05:09:59;1.35;;;0.85;;
12059;SDS011;6091;51.432;6.880;2022-11-25T05:12:27;1.00;;;0.90;;
12059;SDS011;6091;51.432;6.880;2022-11-25T05:14:54;1.23;;;0.90;;
12059;SDS011;6091;51.432;6.880;2022-11-25T05:17:24;1.17;;;0.68;;
12059;SDS011;6091;51.432;6.880;2022-11-25T05:19:54;0.90;;;0.80;;
12059;SDS011;6091;51.432;6.880;2022-11-25T05:22:25;1.15;;;0.82;;
12059;SDS011;6091;51.432;6.880;2022-11-25T05:24:55;0.82;;;0.80;;
12059;SDS011;6091;51.432;6.880;2022-11-25T05:27:22;0.80;;;0.80;;
12059;SDS011;6091;51.432;6.880;2022-11-25T05:29:50;1.00;;;0.90;;
12059;SDS011;6091;51.432;6.880;2022-11-25T05:32:21;0.80;;;0.80;;
12059;SDS011;6091;51.432;6.880;2022-11-25T05:34:49;1.10;;;0.73;;
12059;SDS011;6091;51.432;6.880;2022-11-25T05:37:15;1.20;;;0.80;;
12059;SDS011;6091;51.432;6.880;2022-11-25T05:39:49;1.13;;;0.75;;
12059;SDS011;6091;51.432;6.880;2022-11-25T05:42:16;0.98;;;0.70;;
12059;SDS011;6091;51.432;6.880;2022-11-25T05:44:44;0.85;;;0.80;;
12059;SDS011;6091;51.432;6.880;2022-11-25T05:47:10;1.42;;;1.23;;
12059;SDS011;6091;51.432;6.880;2022-11-25T05:49:37;0.73;;;0.70;;
12059;SDS011;6091;51.432;6.880;2022-11-25T05:52:04;0.80;;;0.80;;
12059;SDS011;6091;51.432;6.880;2022-11-25T05:54:31;1.50;;;0.90;;
12059;SDS011;6091;51.432;6.880;2022-11-25T05:56:58;0.90;;;0.88;;
12059;SDS011;6091;51.432;6.880;2022-11-25T05:59:25;1.15;;;0.80;;
12059;SDS011;6091;51.432;6.880;2022-11-25T06:01:52;0.85;;;0.80;;
12059;SDS011;6091;51.432;6.880;2022-11-25T06:04:19;1.25;;;1.02;;
12059;SDS011;6091;51.432;6.880;2022-11-25T06:06:46;1.10;;;1.00;;
12059;SDS011;6091;51.432;6.880;2022-11-25T06:09:13;0.80;;;0.80;;
12059;SDS011;6091;51.432;6.880;2022-11-25T06:11:40;1.00;;;0.80;;
12059;SDS011;6091;51.432;6.880;2022-11-25T06:14:07;0.70;;;0.65;;
12059;SDS011;6091;51.432;6.880;2022-11-25T06:16:35;1.48;;;0.90;;
12059;SDS011;6091;51.432;6.880;2022-11-25T06:19:02;1.70;;;1.10;;
12059;SDS011;6091;51.432;6.880;2022-11-25T06:21:31;0.80;;;0.80;;
12059;SDS011;6091;51.432;6.880;2022-11-25T06:23:58;1.15;;;0.93;;
12059;SDS011;6091;51.432;6.880;2022-11-25T06:26:26;1.15;;;0.80;;
12059;SDS011;6091;51.432;6.880;2022-11-25T06:28:53;1.90;;;1.02;;
12059;SDS011;6091;51.432;6.880;2022-11-25T06:31:22;0.70;;;0.70;;
12059;SDS011;6091;51.432;6.880;2022-11-25T06:33:51;1.17;;;0.90;;
12059;SDS011;6091;51.432;6.880;2022-11-25T06:36:19;1.17;;;0.90;;
12059;SDS011;6091;51.432;6.880;2022-11-25T06:38:49;0.70;;;0.65;;
12059;SDS011;6091;51.432;6.880;2022-11-25T06:41:19;1.58;;;1.15;;
12059;SDS011;6091;51.432;6.880;2022-11-25T06:43:47;0.80;;;0.80;;
12059;SDS011;6091;51.432;6.880;2022-11-25T06:46:15;1.40;;;0.88;;
12059;SDS011;6091;51.432;6.880;2022-11-25T06:48:51;1.20;;;0.88;;
12059;SDS011;6091;51.432;6.880;2022-11-25T06:51:19;0.90;;;0.80;;
12059;SDS011;6091;51.432;6.880;2022-11-25T06:53:46;0.75;;;0.75;;
12059;SDS011;6091;51.432;6.880;2022-11-25T06:56:14;0.68;;;0.68;;
12059;SDS011;6091;51.432;6.880;2022-11-25T06:58:44;1.33;;;0.80;;
12059;SDS011;6091;51.432;6.880;2022-11-25T07:01:16;0.75;;;0.75;;
12059;SDS011;6091;51.432;6.880;2022-11-25T07:03:59;1.00;;;0.90;;
12059;SDS011;6091;51.432;6.880;2022-11-25T07:06:29;1.38;;;0.80;;
12059;SDS011;6091;51.432;6.880;2022-11-25T07:08:57;0.70;;;0.70;;
12059;SDS011;6091;51.432;6.880;2022-11-25T07:11:26;2.42;;;0.90;;
12059;SDS011;6091;51.432;6.880;2022-11-25T07:13:56;1.00;;;0.88;;
12059;SDS011;6091;51.432;6.880;2022-11-25T07:16:26;2.08;;;0.93;;
12059;SDS011;6091;51.432;6.880;2022-11-25T07:18:57;0.82;;;0.65;;
12059;SDS011;6091;51.432;6.880;2022-11-25T07:21:27;1.10;;;0.95;;
12059;SDS011;6091;51.432;6.880;2022-11-25T07:23:58;1.77;;;1.10;;
12059;SDS011;6091;51.432;6.880;2022-11-25T07:26:28;1.05;;;0.80;;
12059;SDS011;6091;51.432;6.880;2022-11-25T07:28:59;1.33;;;0.82;;
12059;SDS011;6091;51.432;6.880;2022-11-25T07:31:29;3.28;;;1.20;;
12059;SDS011;6091;51.432;6.880;2022-11-25T07:36:38;2.25;;;1.02;;
12059;SDS011;6091;51.432;6.880;2022-11-25T07:39:08;1.65;;;1.15;;
12059;SDS011;6091;51.432;6.880;2022-11-25T07:41:42;1.80;;;1.00;;
12059;SDS011;6091;51.432;6.880;2022-11-25T07:44:10;2.38;;;1.10;;
12059;SDS011;6091;51.432;6.880;2022-11-25T07:46:40;1.30;;;0.80;;
12059;SDS011;6091;51.432;6.880;2022-11-25T07:49:15;4.35;;;1.10;;
12059;SDS011;6091;51.432;6.880;2022-11-25T07:51:48;2.42;;;1.05;;
12059;SDS011;6091;51.432;6.880;2022-11-25T07:54:19;3.60;;;1.27;;
12059;SDS011;6091;51.432;6.880;2022-11-25T07:56:47;5.20;;;1.30;;
12059;SDS011;6091;51.432;6.880;2022-11-25T07:59:17;5.05;;;1.10;;
12059;SDS011;6091;51.432;6.880;2022-11-25T08:01:50;6.03;;;1.25;;
12059;SDS011;6091;51.432;6.880;2022-11-25T08:04:19;1.65;;;1.15;;
12059;SDS011;6091;51.432;6.880;2022-11-25T08:06:47;10.00;;;1.50;;
12059;SDS011;6091;51.432;6.880;2022-11-25T08:09:18;3.50;;;1.98;;
12059;SDS011;6091;51.432;6.880;2022-11-25T08:11:49;4.68;;;1.27;;
12059;SDS011;6091;51.432;6.880;2022-11-25T08:14:17;3.70;;;1.40;;
12059;SDS011;6091;51.432;6.880;2022-11-25T08:16:45;9.48;;;1.80;;
12059;SDS011;6091;51.432;6.880;2022-11-25T08:19:15;6.47;;;1.30;;
12059;SDS011;6091;51.432;6.880;2022-11-25T08:21:42;4.82;;;1.40;;
12059;SDS011;6091;51.432;6.880;2022-11-25T08:24:17;6.43;;;1.30;;
12059;SDS011;6091;51.432;6.880;2022-11-25T08:26:46;2.33;;;1.00;;
12059;SDS011;6091;51.432;6.880;2022-11-25T08:29:15;4.65;;;1.02;;
12059;SDS011;6091;51.432;6.880;2022-11-25T08:31:44;3.60;;;1.10;;
12059;SDS011;6091;51.432;6.880;2022-11-25T08:34:15;4.00;;;1.20;;
12059;SDS011;6091;51.432;6.880;2022-11-25T08:36:46;4.03;;;1.02;;
12059;SDS011;6091;51.432;6.880;2022-11-25T08:39:15;2.83;;;1.13;;
12059;SDS011;6091;51.432;6.880;2022-11-25T08:42:03;5.57;;;1.40;;
12059;SDS011;6091;51.432;6.880;2022-11-25T08:44:32;1.50;;;1.00;;
12059;SDS011;6091;51.432;6.880;2022-11-25T08:47:04;2.53;;;1.15;;
12059;SDS011;6091;51.432;6.880;2022-11-25T08:49:31;3.72;;;1.23;;
12059;SDS011;6091;51.432;6.880;2022-11-25T08:52:06;5.22;;;1.10;;
12059;SDS011;6091;51.432;6.880;2022-11-25T08:54:33;1.80;;;0.90;;
12059;SDS011;6091;51.432;6.880;2022-11-25T08:57:01;1.65;;;1.10;;
12059;SDS011;6091;51.432;6.880;2022-11-25T08:59:28;2.05;;;1.20;;
12059;SDS011;6091;51.432;6.880;2022-11-25T09:01:55;1.98;;;1.20;;
12059;SDS011;6091;51.432;6.880;2022-11-25T09:04:22;1.67;;;1.00;;
12059;SDS011;6091;51.432;6.880;2022-11-25T09:06:49;4.10;;;0.95;;
12059;SDS011;6091;51.432;6.880;2022-11-25T09:09:16;1.95;;;1.30;;
12059;SDS011;6091;51.432;6.880;2022-11-25T09:11:43;1.63;;;1.00;;
12059;SDS011;6091;51.432;6.880;2022-11-25T09:14:10;2.72;;;1.30;;
12059;SDS011;6091;51.432;6.880;2022-11-25T09:16:37;1.52;;;1.00;;
12059;SDS011;6091;51.432;6.880;2022-11-25T09:19:07;1.33;;;1.00;;
12059;SDS011;6091;51.432;6.880;2022-11-25T09:21:34;1.05;;;0.93;;
12059;SDS011;6091;51.432;6.880;2022-11-25T09:24:01;2.15;;;1.00;;
12059;SDS011;6091;51.432;6.880;2022-11-25T09:26:30;1.75;;;1.00;;
12059;SDS011;6091;51.432;6.880;2022-11-25T09:29:02;2.15;;;1.30;;
12059;SDS011;6091;51.432;6.880;2022-11-25T09:31:29;6.07;;;1.48;;
12059;SDS011;6091;51.432;6.880;2022-11-25T09:33:56;6.15;;;1.58;;
12059;SDS011;6091;51.432;6.880;2022-11-25T09:36:23;6.60;;;1.50;;
12059;SDS011;6091;51.432;6.880;2022-11-25T09:38:50;6.18;;;1.50;;
12059;SDS011;6091;51.432;6.880;2022-11-25T09:53:50;3.42;;;1.30;;
12059;SDS011;6091;51.432;6.880;2022-11-25T09:56:30;3.58;;;1.40;;
12059;SDS011;6091;51.432;6.880;2022-11-25T10:01:58;5.38;;;1.40;;
12059;SDS011;6091;51.432;6.880;2022-11-25T10:04:38;5.53;;;1.40;;
12059;SDS011;6091;51.432;6.880;2022-11-25T10:07:17;2.60;;;1.20;;
12059;SDS011;6091;51.432;6.880;2022-11-25T10:10:00;3.95;;;1.45;;
12059;SDS011;6091;51.432;6.880;2022-11-25T10:12:31;2.65;;;1.10;;
12059;SDS011;6091;51.432;6.880;2022-11-25T10:15:05;3.83;;;1.20;;
12059;SDS011;6091;51.432;6.880;2022-11-25T10:17:47;3.25;;;1.20;;
12059;SDS011;6091;51.432;6.880;2022-11-25T10:20:27;3.85;;;1.20;;
12059;SDS011;6091;51.432;6.880;2022-11-25T10:23:00;2.40;;;1.20;;
12059;SDS011;6091;51.432;6.880;2022-11-25T10:25:47;2.42;;;1.38;;
12059;SDS011;6091;51.432;6.880;2022-11-25T10:28:22;1.88;;;1.00;;
12059;SDS011;6091;51.432;6.880;2022-11-25T10:34:11;1.40;;;1.08;;
12059;SDS011;6091;51.432;6.880;2022-11-25T10:36:57;4.25;;;1.33;;
12059;SDS011;6091;51.432;6.880;2022-11-25T10:39:30;2.50;;;1.15;;
12059;SDS011;6091;51.432;6.880;2022-11-25T10:42:02;2.72;;;1.25;;
12059;SDS011;6091;51.432;6.880;2022-11-25T10:44:35;4.15;;;1.40;;
12059;SDS011;6091;51.432;6.880;2022-11-25T10:50:24;7.43;;;1.40;;
12059;SDS011;6091;51.432;6.880;2022-11-25T10:53:05;7.22;;;1.63;;
12059;SDS011;6091;51.432;6.880;2022-11-25T10:56:24;4.75;;;1.20;;
12059;SDS011;6091;51.432;6.880;2022-11-25T10:58:43;3.22;;;1.45;;
12059;SDS011;6091;51.432;6.880;2022-11-25T11:03:52;7.55;;;1.40;;
12059;SDS011;6091;51.432;6.880;2022-11-25T11:06:35;7.00;;;1.50;;
12059;SDS011;6091;51.432;6.880;2022-11-25T11:14:52;2.45;;;1.23;;
12059;SDS011;6091;51.432;6.880;2022-11-25T11:17:41;4.15;;;1.48;;
12059;SDS011;6091;51.432;6.880;2022-11-25T11:22:35;2.92;;;1.10;;
12059;SDS011;6091;51.432;6.880;2022-11-25T11:25:35;3.50;;;1.20;;
12059;SDS011;6091;51.432;6.880;2022-11-25T11:28:24;6.15;;;1.23;;
12059;SDS011;6091;51.432;6.880;2022-11-25T11:31:14;3.63;;;1.25;;
12059;SDS011;6091;51.432;6.880;2022-11-25T11:34:01;2.35;;;1.23;;
12059;SDS011;6091;51.432;6.880;2022-11-25T11:37:34;2.38;;;0.95;;
12059;SDS011;6091;51.432;6.880;2022-11-25T11:40:21;4.05;;;1.30;;
12059;SDS011;6091;51.432;6.880;2022-11-25T11:49:17;3.17;;;1.40;;
12059;SDS011;6091;51.432;6.880;2022-11-25T11:52:08;2.00;;;1.10;;
12059;SDS011;6091;51.432;6.880;2022-11-25T11:54:52;3.45;;;1.00;;
12059;SDS011;6091;51.432;6.880;2022-11-25T11:57:38;2.00;;;1.00;;
12059;SDS011;6091;51.432;6.880;2022-11-25T12:00:22;2.75;;;1.25;;
12059;SDS011;6091;51.432;6.880;2022-11-25T12:02:53;3.72;;;1.08;;
12059;SDS011;6091;51.432;6.880;2022-11-25T12:05:35;3.15;;;1.55;;
12059;SDS011;6091;51.432;6.880;2022-11-25T12:10:53;2.88;;;1.30;;
12059;SDS011;6091;51.432;6.880;2022-11-25T12:13:47;1.90;;;1.20;;
12059;SDS011;6091;51.432;6.880;2022-11-25T12:16:29;3.22;;;1.25;;
12059;SDS011;6091;51.432;6.880;2022-11-25T12:19:13;2.78;;;1.35;;
12059;SDS011;6091;51.432;6.880;2022-11-25T12:22:20;2.70;;;1.20;;
12059;SDS011;6091;51.432;6.880;2022-11-25T12:25:06;2.55;;;1.20;;
12059;SDS011;6091;51.432;6.880;2022-11-25T12:28:06;2.60;;;1.20;;
12059;SDS011;6091;51.432;6.880;2022-11-25T12:33:51;2.60;;;1.00;;
12059;SDS011;6091;51.432;6.880;2022-11-25T12:36:50;1.20;;;1.10;;
12059;SDS011;6091;51.432;6.880;2022-11-25T12:39:28;1.50;;;1.00;;
12059;SDS011;6091;51.432;6.880;2022-11-25T12:42:14;1.55;;;0.93;;
12059;SDS011;6091;51.432;6.880;2022-11-25T12:44:56;1.80;;;1.00;;
12059;SDS011;6091;51.432;6.880;2022-11-25T12:47:30;2.30;;;1.10;;
12059;SDS011;6091;51.432;6.880;2022-11-25T12:49:57;2.20;;;1.13;;
12059;SDS011;6091;51.432;6.880;2022-11-25T12:52:29;1.35;;;1.10;;
12059;SDS011;6091;51.432;6.880;2022-11-25T12:55:20;1.50;;;1.02;;
12059;SDS011;6091;51.432;6.880;2022-11-25T13:17:24;4.30;;;1.50;;
12059;SDS011;6091;51.432;6.880;2022-11-25T13:23:18;4.75;;;1.35;;
12059;SDS011;6091;51.432;6.880;2022-11-25T13:25:52;3.72;;;1.23;;
12059;SDS011;6091;51.432;6.880;2022-11-25T13:29:00;6.05;;;2.15;;
12059;SDS011;6091;51.432;6.880;2022-11-25T13:32:26;4.15;;;1.77;;
12059;SDS011;6091;51.432;6.880;2022-11-25T13:37:51;4.78;;;1.73;;
12059;SDS011;6091;51.432;6.880;2022-11-25T13:42:48;6.22;;;2.53;;
12059;SDS011;6091;51.432;6.880;2022-11-25T13:45:28;4.88;;;2.03;;
12059;SDS011;6091;51.432;6.880;2022-11-25T13:51:13;4.60;;;2.63;;
12059;SDS011;6091;51.432;6.880;2022-11-25T13:53:55;3.53;;;2.03;;
12059;SDS011;6091;51.432;6.880;2022-11-25T13:56:28;4.18;;;2.47;;
12059;SDS011;6091;51.432;6.880;2022-11-25T14:01:37;5.30;;;2.20;;
12059;SDS011;6091;51.432;6.880;2022-11-25T14:04:16;4.35;;;2.30;;
12059;SDS011;6091;51.432;6.880;2022-11-25T14:26:29;4.72;;;2.05;;
12059;SDS011;6091;51.432;6.880;2022-11-25T14:29:22;6.10;;;2.28;;
12059;SDS011;6091;51.432;6.880;2022-11-25T14:34:55;8.10;;;2.20;;
12059;SDS011;6091;51.432;6.880;2022-11-25T14:38:16;5.60;;;2.38;;
12059;SDS011;6091;51.432;6.880;2022-11-25T14:40:35;4.93;;;1.98;;
12059;SDS011;6091;51.432;6.880;2022-11-25T14:43:21;4.20;;;1.83;;
12059;SDS011;6091;51.432;6.880;2022-11-25T14:48:41;4.28;;;1.92;;
12059;SDS011;6091;51.432;6.880;2022-11-25T14:51:09;3.20;;;1.90;;
12059;SDS011;6091;51.432;6.880;2022-11-25T14:53:44;5.85;;;2.00;;
12059;SDS011;6091;51.432;6.880;2022-11-25T14:56:15;3.70;;;2.05;;
12059;SDS011;6091;51.432;6.880;2022-11-25T14:58:52;3.60;;;2.00;;
12059;SDS011;6091;51.432;6.880;2022-11-25T15:01:27;6.30;;;3.40;;
12059;SDS011;6091;51.432;6.880;2022-11-25T15:04:00;4.35;;;2.67;;
12059;SDS011;6091;51.432;6.880;2022-11-25T15:06:32;4.35;;;2.08;;
12059;SDS011;6091;51.432;6.880;2022-11-25T15:09:02;4.05;;;2.03;;
12059;SDS011;6091;51.432;6.880;2022-11-25T15:11:47;6.25;;;2.10;;
12059;SDS011;6091;51.432;6.880;2022-11-25T15:14:23;3.00;;;1.83;;
12059;SDS011;6091;51.432;6.880;2022-11-25T15:17:00;3.35;;;1.98;;
12059;SDS011;6091;51.432;6.880;2022-11-25T15:19:52;2.80;;;1.50;;
12059;SDS011;6091;51.432;6.880;2022-11-25T15:22:22;3.75;;;1.80;;
12059;SDS011;6091;51.432;6.880;2022-11-25T15:24:50;3.38;;;1.77;;
12059;SDS011;6091;51.432;6.880;2022-11-25T15:27:23;2.67;;;1.50;;
12059;SDS011;6091;51.432;6.880;2022-11-25T15:29:53;5.10;;;2.20;;
12059;SDS011;6091;51.432;6.880;2022-11-25T15:34:57;3.05;;;1.50;;
12059;SDS011;6091;51.432;6.880;2022-11-25T15:37:27;3.85;;;1.80;;
12059;SDS011;6091;51.432;6.880;2022-11-25T15:43:22;2.75;;;1.90;;
12059;SDS011;6091;51.432;6.880;2022-11-25T15:45:59;4.47;;;1.90;;
12059;SDS011;6091;51.432;6.880;2022-11-25T15:48:31;3.25;;;1.70;;
12059;SDS011;6091;51.432;6.880;2022-11-25T15:51:23;3.60;;;2.20;;
12059;SDS011;6091;51.432;6.880;2022-11-25T15:54:12;4.72;;;2.22;;
12059;SDS011;6091;51.432;6.880;2022-11-25T15:56:56;4.97;;;1.83;;
12059;SDS011;6091;51.432;6.880;2022-11-25T16:07:38;4.63;;;2.15;;
12059;SDS011;6091;51.432;6.880;2022-11-25T16:18:49;3.97;;;1.70;;
12059;SDS011;6091;51.432;6.880;2022-11-25T16:21:52;4.57;;;2.00;;
12059;SDS011;6091;51.432;6.880;2022-11-25T16:27:27;3.30;;;1.88;;
12059;SDS011;6091;51.432;6.880;2022-11-25T16:29:56;5.05;;;2.33;;
12059;SDS011;6091;51.432;6.880;2022-11-25T16:32:45;3.25;;;1.80;;
12059;SDS011;6091;51.432;6.880;2022-11-25T16:35:13;4.72;;;2.13;;
12059;SDS011;6091;51.432;6.880;2022-11-25T16:37:45;3.92;;;2.17;;
12059;SDS011;6091;51.432;6.880;2022-11-25T16:40:15;2.47;;;1.85;;
12059;SDS011;6091;51.432;6.880;2022-11-25T16:42:47;3.03;;;1.63;;
12059;SDS011;6091;51.432;6.880;2022-11-25T16:45:19;3.95;;;2.00;;
12059;SDS011;6091;51.432;6.880;2022-11-25T16:47:51;3.10;;;1.80;;
12059;SDS011;6091;51.432;6.880;2022-11-25T16:50:18;3.13;;;1.90;;
12059;SDS011;6091;51.432;6.880;2022-11-25T16:52:47;4.47;;;1.90;;
12059;SDS011;6091;51.432;6.880;2022-11-25T16:55:15;5.85;;;2.13;;
12059;SDS011;6091;51.432;6.880;2022-11-25T16:57:43;3.38;;;2.10;;
12059;SDS011;6091;51.432;6.880;2022-11-25T17:00:12;4.68;;;1.88;;
12059;SDS011;6091;51.432;6.880;2022-11-25T17:02:42;3.45;;;2.10;;
12059;SDS011;6091;51.432;6.880;2022-11-25T17:05:23;2.67;;;2.03;;
12059;SDS011;6091;51.432;6.880;2022-11-25T17:07:51;3.65;;;2.25;;
12059;SDS011;6091;51.432;6.880;2022-11-25T17:10:19;3.38;;;2.00;;
12059;SDS011;6091;51.432;6.880;2022-11-25T17:12:46;2.97;;;2.22;;
12059;SDS011;6091;51.432;6.880;2022-11-25T17:15:15;5.55;;;2.00;;
12059;SDS011;6091;51.432;6.880;2022-11-25T17:17:46;2.70;;;1.95;;
12059;SDS011;6091;51.432;6.880;2022-11-25T17:20:15;3.83;;;2.22;;
12059;SDS011;6091;51.432;6.880;2022-11-25T17:22:46;3.30;;;2.05;;
12059;SDS011;6091;51.432;6.880;2022-11-25T17:25:14;5.22;;;2.97;;
12059;SDS011;6091;51.432;6.880;2022-11-25T17:27:41;3.92;;;2.53;;
12059;SDS011;6091;51.432;6.880;2022-11-25T17:30:24;3.60;;;2.60;;
12059;SDS011;6091;51.432;6.880;2022-11-25T17:32:56;3.60;;;2.67;;
12059;SDS011;6091;51.432;6.880;2022-11-25T17:35:40;4.05;;;2.58;;
12059;SDS011;6091;51.432;6.880;2022-11-25T17:38:14;2.97;;;2.40;;
12059;SDS011;6091;51.432;6.880;2022-11-25T17:40:45;3.90;;;2.60;;
12059;SDS011;6091;51.432;6.880;2022-11-25T17:43:13;4.18;;;2.55;;
12059;SDS011;6091;51.432;6.880;2022-11-25T17:45:43;4.55;;;2.42;;
12059;SDS011;6091;51.432;6.880;2022-11-25T17:48:15;4.93;;;2.70;;
12059;SDS011;6091;51.432;6.880;2022-11-25T17:50:43;3.05;;;2.20;;
12059;SDS011;6091;51.432;6.880;2022-11-25T17:53:11;5.80;;;2.58;;